Time;durP1;ratioP1;P1;durP2;ratioP2;P2;SDS_P1;SDS_P2;PMS_P1;PMS_P2;Temp;Humidity;BMP_temperature;BMP_pressure;BME280_temperature;BME280_humidity;BME280_pressure;Samples;Min_cycle;Max_cycle;Signal;HPM_P1;HPM_P2
2021/08/05 00:00:41;;;;;;;0.22;0.00;;;;;;;;;;5000675;28;20018;-69
2021/08/05 00:03:09;;;;;;;0.30;0.00;;;;;;;;;;4992548;28;20045;-69
2021/08/05 00:05:36;;;;;;;0.98;0.10;;;;;;;;;;4991618;28;20506;-68
2021/08/05 00:08:03;;;;;;;0.80;0.00;;;;;;;;;;4992836;28;20030;-70
2021/08/05 00:10:30;;;;;;;0.22;0.00;;;;;;;;;;4994699;28;20030;-69
2021/08/05 00:12:58;;;;;;;1.65;0.03;;;;;;;;;;4993455;28;20038;-68
2021/08/05 00:15:25;;;;;;;0.22;0.03;;;;;;;;;;4993850;28;20022;-68
2021/08/05 00:17:52;;;;;;;0.10;0.00;;;;;;;;;;4990769;28;20029;-70
2021/08/05 00:20:19;;;;;;;0.05;0.05;;;;;;;;;;4988715;28;20026;-69
2021/08/05 00:22:46;;;;;;;0.28;0.10;;;;;;;;;;4985123;28;20093;-70
2021/08/05 00:25:13;;;;;;;0.05;0.00;;;;;;;;;;4992539;28;20023;-68
2021/08/05 00:27:40;;;;;;;0.10;0.00;;;;;;;;;;5007715;28;20275;-68
2021/08/05 00:30:08;;;;;;;0.60;0.10;;;;;;;;;;4993596;28;20069;-68
2021/08/05 00:32:35;;;;;;;0.00;0.00;;;;;;;;;;4991858;28;20069;-69
2021/08/05 00:35:02;;;;;;;0.17;0.05;;;;;;;;;;5009268;28;20030;-68
2021/08/05 00:37:29;;;;;;;0.00;0.00;;;;;;;;;;4992594;28;20130;-69
2021/08/05 00:39:57;;;;;;;0.10;0.00;;;;;;;;;;4993645;28;20026;-68
2021/08/05 00:42:25;;;;;;;1.65;0.28;;;;;;;;;;4992483;28;20529;-68
2021/08/05 00:44:52;;;;;;;0.43;0.10;;;;;;;;;;4993221;28;20073;-69
2021/08/05 00:47:19;;;;;;;0.00;0.00;;;;;;;;;;5007250;28;20022;-69
2021/08/05 00:49:46;;;;;;;0.00;0.00;;;;;;;;;;4987841;28;20029;-68
2021/08/05 00:52:13;;;;;;;0.25;0.13;;;;;;;;;;4990422;28;20076;-69
2021/08/05 00:54:40;;;;;;;1.13;0.00;;;;;;;;;;4990479;28;20073;-69
2021/08/05 00:57:08;;;;;;;0.10;0.00;;;;;;;;;;4991150;28;20113;-67
2021/08/05 00:59:35;;;;;;;0.35;0.00;;;;;;;;;;4986817;28;20023;-68
2021/08/05 01:02:06;;;;;;;1.20;0.10;;;;;;;;;;4986991;28;20099;-68
2021/08/05 01:04:34;;;;;;;0.30;0.10;;;;;;;;;;4992112;28;20540;-69
2021/08/05 01:07:13;;;;;;;3.10;0.47;;;;;;;;;;4985531;28;20037;-68
2021/08/05 01:09:47;;;;;;;0.45;0.00;;;;;;;;;;4991247;28;20030;-70
2021/08/05 01:12:19;;;;;;;0.30;0.10;;;;;;;;;;4991572;28;20151;-69
2021/08/05 01:14:48;;;;;;;0.45;0.00;;;;;;;;;;4993109;28;20122;-70
2021/08/05 01:17:16;;;;;;;0.65;0.10;;;;;;;;;;4992348;28;20056;-69
2021/08/05 01:19:56;;;;;;;0.85;0.05;;;;;;;;;;4995406;28;20498;-70
2021/08/05 01:22:41;;;;;;;1.30;0.25;;;;;;;;;;4992514;28;20035;-69
2021/08/05 01:25:10;;;;;;;0.38;0.10;;;;;;;;;;4989296;28;20034;-69
2021/08/05 01:27:38;;;;;;;0.00;0.00;;;;;;;;;;5007567;28;20030;-69
2021/08/05 01:30:05;;;;;;;0.70;0.00;;;;;;;;;;4992743;28;20451;-68
2021/08/05 01:32:33;;;;;;;0.00;0.00;;;;;;;;;;4991454;28;20022;-68
2021/08/05 01:35:00;;;;;;;0.63;0.08;;;;;;;;;;4995019;28;20037;-68
2021/08/05 01:37:28;;;;;;;0.10;0.03;;;;;;;;;;4996020;28;20026;-69
2021/08/05 01:39:56;;;;;;;0.80;0.00;;;;;;;;;;4993510;28;20089;-69
2021/08/05 01:42:23;;;;;;;0.45;0.00;;;;;;;;;;4993632;28;20547;-69
2021/08/05 01:44:53;;;;;;;0.38;0.10;;;;;;;;;;4991441;28;20050;-69
2021/08/05 01:47:21;;;;;;;0.10;0.00;;;;;;;;;;4989771;28;20027;-69
2021/08/05 01:49:49;;;;;;;0.00;0.00;;;;;;;;;;4987722;28;20037;-68
2021/08/05 01:52:18;;;;;;;0.30;0.10;;;;;;;;;;4992551;28;20085;-68
2021/08/05 01:54:45;;;;;;;0.50;0.00;;;;;;;;;;4983629;28;20503;-68
2021/08/05 01:57:12;;;;;;;0.08;0.03;;;;;;;;;;5006030;28;20101;-66
2021/08/05 01:59:42;;;;;;;0.20;0.10;;;;;;;;;;4992471;28;20026;-68
2021/08/05 02:02:09;;;;;;;0.95;0.10;;;;;;;;;;4990743;28;20088;-68
2021/08/05 02:04:36;;;;;;;1.48;0.13;;;;;;;;;;4993313;28;20607;-69
2021/08/05 02:07:09;;;;;;;0.13;0.00;;;;;;;;;;4990381;28;20085;-68
2021/08/05 02:09:54;;;;;;;0.98;0.00;;;;;;;;;;4992581;28;20092;-70
2021/08/05 02:12:21;;;;;;;0.70;0.10;;;;;;;;;;4995985;28;20043;-69
2021/08/05 02:14:50;;;;;;;0.95;0.10;;;;;;;;;;4986191;28;20026;-69
2021/08/05 02:17:17;;;;;;;0.38;0.10;;;;;;;;;;4987547;28;20026;-69
2021/08/05 02:19:46;;;;;;;3.65;0.55;;;;;;;;;;4998174;28;20030;-68
2021/08/05 02:22:14;;;;;;;0.80;0.08;;;;;;;;;;4995966;28;20357;-69
2021/08/05 02:24:41;;;;;;;0.50;0.00;;;;;;;;;;4996164;28;20391;-69
2021/08/05 02:27:09;;;;;;;0.22;0.00;;;;;;;;;;4992317;28;20113;-70
2021/08/05 02:29:36;;;;;;;2.00;0.10;;;;;;;;;;5002955;28;20121;-69
2021/08/05 02:32:03;;;;;;;2.58;0.20;;;;;;;;;;4995108;28;20376;-69
2021/08/05 02:34:31;;;;;;;0.30;0.00;;;;;;;;;;4997376;28;20026;-68
2021/08/05 02:36:59;;;;;;;2.70;0.00;;;;;;;;;;5001039;28;20065;-68
2021/08/05 02:39:26;;;;;;;0.10;0.00;;;;;;;;;;4997419;28;20019;-69
2021/08/05 02:41:53;;;;;;;0.40;0.00;;;;;;;;;;4996824;28;20019;-67
2021/08/05 02:44:21;;;;;;;2.05;0.10;;;;;;;;;;5009815;28;20062;-68
2021/08/05 02:46:49;;;;;;;0.22;0.00;;;;;;;;;;4994839;28;20030;-68
2021/08/05 02:49:16;;;;;;;0.60;0.10;;;;;;;;;;4996075;28;20014;-67
2021/08/05 02:51:46;;;;;;;0.38;0.10;;;;;;;;;;4989654;28;20025;-67
2021/08/05 02:54:13;;;;;;;0.80;0.43;;;;;;;;;;4996533;28;20057;-68
2021/08/05 02:56:41;;;;;;;2.05;0.10;;;;;;;;;;4992802;28;20132;-67
2021/08/05 02:59:08;;;;;;;0.22;0.10;;;;;;;;;;4996075;28;20101;-68
2021/08/05 03:01:36;;;;;;;0.98;0.10;;;;;;;;;;4994432;28;20426;-69
2021/08/05 03:04:03;;;;;;;0.40;0.20;;;;;;;;;;4994795;28;20475;-70
2021/08/05 03:06:32;;;;;;;0.30;0.10;;;;;;;;;;5010072;28;20070;-69
2021/08/05 03:08:59;;;;;;;0.22;0.00;;;;;;;;;;4996074;28;20037;-70
2021/08/05 03:11:26;;;;;;;0.43;0.10;;;;;;;;;;4996476;28;20022;-69
2021/08/05 03:13:54;;;;;;;2.30;0.10;;;;;;;;;;4999213;28;20394;-69
2021/08/05 03:16:21;;;;;;;4.13;0.40;;;;;;;;;;4994075;28;20026;-70
2021/08/05 03:18:48;;;;;;;1.48;0.17;;;;;;;;;;4997096;28;20113;-70
2021/08/05 03:21:15;;;;;;;0.20;0.03;;;;;;;;;;4998154;28;20531;-69
2021/08/05 03:23:42;;;;;;;2.38;0.10;;;;;;;;;;4995027;28;20394;-69
2021/08/05 03:26:09;;;;;;;2.95;0.20;;;;;;;;;;4997091;28;20063;-69
2021/08/05 03:28:37;;;;;;;0.98;0.22;;;;;;;;;;5010809;28;20054;-69
2021/08/05 03:31:04;;;;;;;0.40;0.10;;;;;;;;;;4999547;28;20033;-67
2021/08/05 03:33:31;;;;;;;0.65;0.10;;;;;;;;;;4991465;28;20451;-68
2021/08/05 03:35:59;;;;;;;0.25;0.00;;;;;;;;;;4997301;28;20507;-68
2021/08/05 03:38:26;;;;;;;0.63;0.10;;;;;;;;;;4993412;28;20042;-68
2021/08/05 03:40:53;;;;;;;0.30;0.00;;;;;;;;;;4991112;28;20352;-70
2021/08/05 03:43:20;;;;;;;0.47;0.30;;;;;;;;;;4990973;28;20040;-70
2021/08/05 03:45:48;;;;;;;0.93;0.00;;;;;;;;;;4993971;28;20015;-69
2021/08/05 03:48:15;;;;;;;0.95;0.08;;;;;;;;;;5005374;28;20112;-68
2021/08/05 03:50:42;;;;;;;1.23;0.00;;;;;;;;;;4991907;28;20026;-70
2021/08/05 03:53:09;;;;;;;0.10;0.00;;;;;;;;;;4992441;28;20077;-68
2021/08/05 03:55:36;;;;;;;0.30;0.10;;;;;;;;;;4995165;28;20028;-67
2021/08/05 03:58:06;;;;;;;0.40;0.00;;;;;;;;;;4993621;28;20112;-70
2021/08/05 04:00:33;;;;;;;1.27;0.10;;;;;;;;;;4995617;28;20019;-70
2021/08/05 04:03:00;;;;;;;0.30;0.10;;;;;;;;;;4993829;28;20105;-69
2021/08/05 04:05:27;;;;;;;0.68;0.00;;;;;;;;;;4995449;28;20165;-69
2021/08/05 04:07:54;;;;;;;0.35;0.10;;;;;;;;;;4992079;28;20480;-68
2021/08/05 04:10:22;;;;;;;0.00;0.00;;;;;;;;;;4994695;28;20018;-68
2021/08/05 04:12:50;;;;;;;0.43;0.10;;;;;;;;;;4992915;28;20057;-69
2021/08/05 04:15:17;;;;;;;0.10;0.00;;;;;;;;;;4990236;28;20029;-67
2021/08/05 04:17:44;;;;;;;1.15;0.10;;;;;;;;;;4995585;28;20030;-68
2021/08/05 04:20:12;;;;;;;0.10;0.00;;;;;;;;;;4994205;28;20447;-68
2021/08/05 04:22:39;;;;;;;0.55;0.00;;;;;;;;;;4993076;28;20080;-70
2021/08/05 04:25:06;;;;;;;0.98;0.10;;;;;;;;;;4995740;28;20030;-68
2021/08/05 04:27:34;;;;;;;1.05;0.08;;;;;;;;;;4993738;28;20026;-68
2021/08/05 04:30:01;;;;;;;0.03;0.03;;;;;;;;;;5007250;28;20062;-68
2021/08/05 04:32:28;;;;;;;0.50;0.00;;;;;;;;;;4996872;28;20030;-68
2021/08/05 04:34:55;;;;;;;0.20;0.03;;;;;;;;;;4998150;28;20491;-68
2021/08/05 04:37:22;;;;;;;1.45;0.10;;;;;;;;;;4996883;28;20038;-68
2021/08/05 04:39:49;;;;;;;0.35;0.03;;;;;;;;;;4998068;28;20030;-68
2021/08/05 04:42:16;;;;;;;0.22;0.10;;;;;;;;;;4996646;28;20034;-69
2021/08/05 04:44:46;;;;;;;0.20;0.00;;;;;;;;;;4997931;28;20057;-69
2021/08/05 04:47:17;;;;;;;0.13;0.00;;;;;;;;;;4989433;28;20054;-67
2021/08/05 04:49:44;;;;;;;0.10;0.00;;;;;;;;;;4995840;28;20041;-68
2021/08/05 04:52:11;;;;;;;0.65;0.10;;;;;;;;;;4994540;28;20382;-68
2021/08/05 04:54:39;;;;;;;0.00;0.00;;;;;;;;;;4995344;28;20046;-70
2021/08/05 04:57:06;;;;;;;0.10;0.10;;;;;;;;;;4992580;28;20031;-69
2021/08/05 04:59:33;;;;;;;0.32;0.10;;;;;;;;;;4994647;28;20019;-68
2021/08/05 05:02:00;;;;;;;1.35;0.10;;;;;;;;;;4992331;28;20029;-68
2021/08/05 05:04:27;;;;;;;0.93;0.00;;;;;;;;;;4995600;28;20027;-69
2021/08/05 05:06:55;;;;;;;0.30;0.08;;;;;;;;;;5009932;28;20030;-67
2021/08/05 05:09:22;;;;;;;0.28;0.10;;;;;;;;;;4982466;28;20031;-68
2021/08/05 05:11:49;;;;;;;0.28;0.10;;;;;;;;;;4980144;28;20054;-69
2021/08/05 05:14:16;;;;;;;1.00;0.00;;;;;;;;;;4993911;28;20507;-67
2021/08/05 05:16:43;;;;;;;0.40;0.00;;;;;;;;;;5009195;28;20181;-68
2021/08/05 05:19:10;;;;;;;1.33;0.05;;;;;;;;;;4995404;28;20442;-68
2021/08/05 05:21:37;;;;;;;1.85;0.00;;;;;;;;;;4990300;28;20019;-66
2021/08/05 05:24:05;;;;;;;0.30;0.03;;;;;;;;;;4995069;28;20056;-68
2021/08/05 05:26:32;;;;;;;0.55;0.10;;;;;;;;;;4987812;28;20425;-68
2021/08/05 05:28:59;;;;;;;0.00;0.00;;;;;;;;;;4990844;28;20498;-68
2021/08/05 05:31:26;;;;;;;0.00;0.00;;;;;;;;;;4993116;28;20026;-69
2021/08/05 05:33:53;;;;;;;0.50;0.00;;;;;;;;;;4993242;28;20053;-67
2021/08/05 05:36:20;;;;;;;0.28;0.00;;;;;;;;;;4990469;28;20431;-68
2021/08/05 05:38:47;;;;;;;0.00;0.00;;;;;;;;;;4990203;28;20069;-68
2021/08/05 05:41:15;;;;;;;0.43;0.00;;;;;;;;;;5011407;28;20026;-68
2021/08/05 05:43:42;;;;;;;0.00;0.00;;;;;;;;;;4990483;28;20038;-67
2021/08/05 05:46:09;;;;;;;0.00;0.00;;;;;;;;;;4996185;28;20430;-68
2021/08/05 05:48:36;;;;;;;0.10;0.00;;;;;;;;;;4994090;28;20030;-69
2021/08/05 05:51:03;;;;;;;0.13;0.00;;;;;;;;;;4991736;28;20022;-68
2021/08/05 05:53:30;;;;;;;0.75;0.10;;;;;;;;;;4989559;28;20054;-69
2021/08/05 05:55:57;;;;;;;0.30;0.10;;;;;;;;;;5007309;28;20041;-66
2021/08/05 05:58:25;;;;;;;0.20;0.00;;;;;;;;;;4993788;28;20022;-67
2021/08/05 06:00:52;;;;;;;0.38;0.00;;;;;;;;;;4989592;28;20050;-68
2021/08/05 06:03:19;;;;;;;0.47;0.10;;;;;;;;;;4985864;28;20599;-70
2021/08/05 06:05:46;;;;;;;0.65;0.20;;;;;;;;;;4990162;28;20472;-68
2021/08/05 06:08:13;;;;;;;2.58;0.10;;;;;;;;;;4984407;28;20063;-68
2021/08/05 06:10:41;;;;;;;1.23;0.00;;;;;;;;;;4989826;28;20042;-67
2021/08/05 06:13:08;;;;;;;0.25;0.00;;;;;;;;;;4987026;28;20049;-68
2021/08/05 06:15:36;;;;;;;0.17;0.08;;;;;;;;;;4990961;28;20106;-68
2021/08/05 06:18:04;;;;;;;1.13;0.00;;;;;;;;;;4992379;28;20027;-68
2021/08/05 06:20:31;;;;;;;0.15;0.00;;;;;;;;;;4994392;28;20494;-69
2021/08/05 06:22:58;;;;;;;0.88;0.10;;;;;;;;;;4994095;28;20045;-69
2021/08/05 06:25:26;;;;;;;0.25;0.10;;;;;;;;;;4990137;28;20030;-70
2021/08/05 06:27:53;;;;;;;0.20;0.03;;;;;;;;;;4991103;28;20121;-67
2021/08/05 06:30:21;;;;;;;0.10;0.05;;;;;;;;;;4989587;28;20022;-68
2021/08/05 06:32:50;;;;;;;1.13;0.00;;;;;;;;;;4988895;28;20447;-70
2021/08/05 06:35:17;;;;;;;0.28;0.10;;;;;;;;;;5006191;28;20030;-69
2021/08/05 06:37:45;;;;;;;0.32;0.00;;;;;;;;;;4987418;28;20023;-70
2021/08/05 06:40:12;;;;;;;0.85;0.10;;;;;;;;;;4997526;28;20097;-68
2021/08/05 06:42:40;;;;;;;0.10;0.00;;;;;;;;;;4990889;28;20472;-68
2021/08/05 06:45:09;;;;;;;0.20;0.03;;;;;;;;;;4990704;28;20035;-68
2021/08/05 06:47:39;;;;;;;0.10;0.00;;;;;;;;;;4985779;28;20033;-70
2021/08/05 06:50:06;;;;;;;0.43;0.15;;;;;;;;;;4987159;28;20025;-70
2021/08/05 06:52:34;;;;;;;0.25;0.10;;;;;;;;;;4988031;28;20019;-70
2021/08/05 06:55:01;;;;;;;0.05;0.00;;;;;;;;;;4988427;28;20096;-66
2021/08/05 06:57:28;;;;;;;0.38;0.10;;;;;;;;;;4986320;28;20041;-67
2021/08/05 06:59:55;;;;;;;0.63;0.10;;;;;;;;;;4988728;28;20510;-71
2021/08/05 07:02:22;;;;;;;0.30;0.10;;;;;;;;;;4988247;28;20026;-69
2021/08/05 07:04:49;;;;;;;1.23;0.17;;;;;;;;;;4991530;28;20280;-69
2021/08/05 07:07:16;;;;;;;2.45;0.70;;;;;;;;;;4987614;28;20038;-68
2021/08/05 07:09:43;;;;;;;0.82;0.03;;;;;;;;;;4993494;28;20383;-68
2021/08/05 07:12:11;;;;;;;0.55;0.20;;;;;;;;;;4989058;28;20022;-68
2021/08/05 07:14:39;;;;;;;0.82;0.17;;;;;;;;;;5013006;28;20034;-68
2021/08/05 07:17:06;;;;;;;0.93;0.30;;;;;;;;;;4991608;28;20022;-69
2021/08/05 07:19:34;;;;;;;2.25;0.22;;;;;;;;;;4994437;28;20054;-69
2021/08/05 07:22:01;;;;;;;0.43;0.10;;;;;;;;;;5008795;28;20022;-68
2021/08/05 07:24:28;;;;;;;0.57;0.10;;;;;;;;;;4992176;28;20030;-68
2021/08/05 07:26:55;;;;;;;1.13;0.10;;;;;;;;;;4992213;28;20027;-68
2021/08/05 07:29:22;;;;;;;0.13;0.10;;;;;;;;;;4991333;28;20416;-68
2021/08/05 07:31:49;;;;;;;1.80;0.25;;;;;;;;;;4993467;28;20022;-68
2021/08/05 07:34:16;;;;;;;1.25;0.10;;;;;;;;;;4991885;28;20037;-69
2021/08/05 07:36:43;;;;;;;0.50;0.10;;;;;;;;;;5003984;28;20399;-68
2021/08/05 07:39:11;;;;;;;0.25;0.20;;;;;;;;;;4984805;28;20023;-69
2021/08/05 07:41:41;;;;;;;1.38;0.20;;;;;;;;;;4993587;28;20122;-68
2021/08/05 07:44:09;;;;;;;0.32;0.20;;;;;;;;;;4989238;28;20045;-68
2021/08/05 07:46:36;;;;;;;2.65;0.70;;;;;;;;;;4996375;28;20029;-67
2021/08/05 07:49:04;;;;;;;0.40;0.20;;;;;;;;;;5002982;28;20026;-67
2021/08/05 07:51:31;;;;;;;0.03;0.00;;;;;;;;;;5006274;28;20085;-68
2021/08/05 07:53:58;;;;;;;0.52;0.10;;;;;;;;;;5006059;28;20042;-67
2021/08/05 07:56:25;;;;;;;0.10;0.10;;;;;;;;;;5012705;28;20032;-68
2021/08/05 07:58:53;;;;;;;0.73;0.20;;;;;;;;;;5009997;28;20019;-68
2021/08/05 08:01:20;;;;;;;0.50;0.20;;;;;;;;;;5014014;28;20034;-67
2021/08/05 08:03:47;;;;;;;0.40;0.20;;;;;;;;;;4996621;28;20499;-69
2021/08/05 08:06:14;;;;;;;0.20;0.10;;;;;;;;;;4999179;28;20026;-67
2021/08/05 08:08:41;;;;;;;0.98;0.20;;;;;;;;;;5005792;28;20103;-67
2021/08/05 08:11:09;;;;;;;0.40;0.10;;;;;;;;;;5001857;28;20050;-66
2021/08/05 08:13:36;;;;;;;0.45;0.10;;;;;;;;;;5001100;28;20100;-68
2021/08/05 08:16:03;;;;;;;1.38;0.10;;;;;;;;;;4984545;28;20038;-69
2021/08/05 08:18:32;;;;;;;1.20;0.65;;;;;;;;;;4999996;28;20029;-68
2021/08/05 08:20:59;;;;;;;0.50;0.25;;;;;;;;;;5010871;28;20105;-68
2021/08/05 08:23:26;;;;;;;0.95;0.30;;;;;;;;;;4995622;28;20026;-67
2021/08/05 08:25:53;;;;;;;0.98;0.25;;;;;;;;;;5008638;28;20049;-67
2021/08/05 08:28:21;;;;;;;0.95;0.20;;;;;;;;;;4999833;28;20508;-68
2021/08/05 08:30:48;;;;;;;0.60;0.20;;;;;;;;;;5007144;28;20391;-68
2021/08/05 08:33:15;;;;;;;2.20;0.40;;;;;;;;;;4993618;28;20431;-69
2021/08/05 08:35:42;;;;;;;0.47;0.20;;;;;;;;;;4998348;28;20017;-69
2021/08/05 08:38:09;;;;;;;0.52;0.20;;;;;;;;;;4994307;28;20053;-69
2021/08/05 08:40:36;;;;;;;0.55;0.20;;;;;;;;;;4993191;28;20060;-69
2021/08/05 08:43:05;;;;;;;0.57;0.30;;;;;;;;;;4997272;28;20080;-69
2021/08/05 08:45:32;;;;;;;1.17;0.60;;;;;;;;;;4996912;28;20499;-69
2021/08/05 08:48:00;;;;;;;0.93;0.20;;;;;;;;;;5009761;28;20022;-68
2021/08/05 08:50:29;;;;;;;1.00;0.30;;;;;;;;;;5010368;28;20022;-68
2021/08/05 08:53:06;;;;;;;0.47;0.30;;;;;;;;;;4997825;28;20061;-68
2021/08/05 08:55:34;;;;;;;0.95;0.30;;;;;;;;;;4988875;28;20491;-68
2021/08/05 08:58:03;;;;;;;0.70;0.40;;;;;;;;;;5005041;28;20034;-69
2021/08/05 09:00:30;;;;;;;0.60;0.20;;;;;;;;;;4993807;28;20030;-70
2021/08/05 09:03:01;;;;;;;1.25;0.20;;;;;;;;;;4992963;28;20018;-68
2021/08/05 09:05:28;;;;;;;0.73;0.30;;;;;;;;;;4994266;28;20101;-69
2021/08/05 09:07:58;;;;;;;1.33;0.28;;;;;;;;;;4997503;28;20142;-71
2021/08/05 09:10:25;;;;;;;0.98;0.40;;;;;;;;;;4992484;28;20031;-68
2021/08/05 09:12:59;;;;;;;1.42;0.50;;;;;;;;;;4992573;28;20125;-69
2021/08/05 09:15:37;;;;;;;2.30;0.63;;;;;;;;;;4993033;28;20038;-68
2021/08/05 09:18:04;;;;;;;0.95;0.40;;;;;;;;;;4992597;28;20034;-68
2021/08/05 09:20:32;;;;;;;6.93;1.75;;;;;;;;;;4992700;28;20088;-69
2021/08/05 09:22:59;;;;;;;1.30;0.20;;;;;;;;;;4992059;28;20789;-68
2021/08/05 09:25:35;;;;;;;0.50;0.20;;;;;;;;;;4992995;28;20027;-69
2021/08/05 09:28:22;;;;;;;1.55;0.38;;;;;;;;;;5006866;28;20076;-69
2021/08/05 09:30:49;;;;;;;0.30;0.10;;;;;;;;;;5006407;28;20029;-69
2021/08/05 09:33:17;;;;;;;0.73;0.30;;;;;;;;;;5001526;28;20026;-69
2021/08/05 09:35:48;;;;;;;0.45;0.28;;;;;;;;;;4989890;28;20027;-67
2021/08/05 09:38:17;;;;;;;0.82;0.20;;;;;;;;;;5001992;28;20030;-68
2021/08/05 09:40:44;;;;;;;0.93;0.15;;;;;;;;;;4992244;28;20026;-68
2021/08/05 09:43:11;;;;;;;0.73;0.20;;;;;;;;;;4989090;28;20029;-69
2021/08/05 09:45:39;;;;;;;0.68;0.20;;;;;;;;;;4992635;28;20034;-67
2021/08/05 09:48:07;;;;;;;1.00;0.20;;;;;;;;;;4992838;28;20483;-68
2021/08/05 09:50:34;;;;;;;0.70;0.25;;;;;;;;;;4996883;28;20025;-68
2021/08/05 09:53:08;;;;;;;0.30;0.20;;;;;;;;;;4990613;28;20058;-68
2021/08/05 09:55:35;;;;;;;1.42;0.20;;;;;;;;;;5004048;28;20034;-68
2021/08/05 09:58:03;;;;;;;2.53;0.30;;;;;;;;;;5001709;28;20101;-68
2021/08/05 10:00:43;;;;;;;0.60;0.30;;;;;;;;;;4990896;28;20125;-68
2021/08/05 10:03:11;;;;;;;1.08;0.30;;;;;;;;;;4994056;28;20034;-67
2021/08/05 10:05:39;;;;;;;0.43;0.30;;;;;;;;;;5006274;28;20026;-68
2021/08/05 10:08:06;;;;;;;1.90;0.40;;;;;;;;;;4991897;28;20018;-68
2021/08/05 10:10:50;;;;;;;0.70;0.38;;;;;;;;;;4989378;28;20053;-67
2021/08/05 10:13:27;;;;;;;1.93;0.40;;;;;;;;;;4999694;28;20027;-67
2021/08/05 10:15:55;;;;;;;1.42;0.50;;;;;;;;;;5004964;28;20035;-67
2021/08/05 10:18:22;;;;;;;1.63;0.73;;;;;;;;;;4991826;28;20056;-67
2021/08/05 10:20:50;;;;;;;2.33;0.30;;;;;;;;;;4994337;28;20133;-67
2021/08/05 10:23:17;;;;;;;1.52;0.40;;;;;;;;;;5000989;28;20042;-68
2021/08/05 10:25:45;;;;;;;0.90;0.50;;;;;;;;;;4992093;28;20033;-67
2021/08/05 10:28:13;;;;;;;0.77;0.32;;;;;;;;;;4991540;28;20045;-68
2021/08/05 10:30:42;;;;;;;1.30;0.25;;;;;;;;;;4992634;28;20106;-66
2021/08/05 10:33:09;;;;;;;1.35;0.43;;;;;;;;;;4990218;28;20129;-67
2021/08/05 10:35:36;;;;;;;1.52;0.30;;;;;;;;;;4987813;28;20030;-68
2021/08/05 10:38:05;;;;;;;0.77;0.30;;;;;;;;;;4995056;28;20033;-68
2021/08/05 10:40:32;;;;;;;0.80;0.20;;;;;;;;;;5004218;28;20030;-68
2021/08/05 10:43:00;;;;;;;0.90;0.60;;;;;;;;;;4998730;28;20037;-69
2021/08/05 10:45:28;;;;;;;3.47;0.50;;;;;;;;;;5015031;28;20026;-69
2021/08/05 10:47:55;;;;;;;0.68;0.20;;;;;;;;;;5014523;28;20029;-69
2021/08/05 10:50:24;;;;;;;1.98;0.43;;;;;;;;;;5002767;28;20026;-69
2021/08/05 10:52:55;;;;;;;0.60;0.40;;;;;;;;;;4995419;28;20117;-69
2021/08/05 10:55:24;;;;;;;0.85;0.30;;;;;;;;;;4993457;28;20027;-68
2021/08/05 10:58:10;;;;;;;0.70;0.32;;;;;;;;;;5000926;28;20491;-67
2021/08/05 11:00:52;;;;;;;0.98;0.60;;;;;;;;;;5000587;28;20106;-69
2021/08/05 11:03:36;;;;;;;0.65;0.20;;;;;;;;;;5009820;28;20490;-67
2021/08/05 11:06:04;;;;;;;2.67;1.00;;;;;;;;;;5013393;28;20026;-68
2021/08/05 11:08:32;;;;;;;1.58;0.60;;;;;;;;;;5004004;28;20037;-68
2021/08/05 11:11:17;;;;;;;2.53;0.60;;;;;;;;;;4995261;28;20390;-67
2021/08/05 11:13:44;;;;;;;1.80;0.40;;;;;;;;;;5000741;28;20026;-67
2021/08/05 11:16:11;;;;;;;0.45;0.30;;;;;;;;;;5002560;28;20044;-69
2021/08/05 11:18:38;;;;;;;1.73;0.65;;;;;;;;;;4995159;28;20018;-68
2021/08/05 11:21:05;;;;;;;1.65;0.50;;;;;;;;;;4995162;28;20112;-68
2021/08/05 11:25:59;;;;;;;0.85;0.50;;;;;;;;;;5000807;28;20037;-67
2021/08/05 11:28:29;;;;;;;0.75;0.32;;;;;;;;;;4998756;28;20053;-68
2021/08/05 11:30:56;;;;;;;0.82;0.43;;;;;;;;;;4986547;28;20026;-66
2021/08/05 11:33:43;;;;;;;1.60;0.40;;;;;;;;;;5002835;28;20056;-66
2021/08/05 11:36:18;;;;;;;1.85;0.55;;;;;;;;;;4986582;28;20030;-67
2021/08/05 11:39:03;;;;;;;0.55;0.40;;;;;;;;;;4986776;28;20050;-67
2021/08/05 11:41:48;;;;;;;1.20;0.43;;;;;;;;;;4988278;28;20146;-66
2021/08/05 11:44:32;;;;;;;1.45;0.40;;;;;;;;;;4992153;28;20031;-66
2021/08/05 11:47:02;;;;;;;2.13;0.40;;;;;;;;;;4988246;28;20101;-67
2021/08/05 11:49:38;;;;;;;2.60;0.88;;;;;;;;;;4988494;28;20030;-67
2021/08/05 11:52:09;;;;;;;0.45;0.30;;;;;;;;;;4988600;28;20030;-67
2021/08/05 11:54:37;;;;;;;1.67;0.52;;;;;;;;;;5006514;28;20088;-67
2021/08/05 11:57:05;;;;;;;1.55;0.52;;;;;;;;;;4985911;28;20038;-67
2021/08/05 11:59:36;;;;;;;0.82;0.32;;;;;;;;;;4991334;28;20025;-67
2021/08/05 12:02:09;;;;;;;1.38;0.30;;;;;;;;;;4987636;28;20121;-67
2021/08/05 12:04:37;;;;;;;1.00;0.45;;;;;;;;;;4990321;28;20026;-68
2021/08/05 12:07:21;;;;;;;1.15;0.70;;;;;;;;;;4988851;28;20077;-67
2021/08/05 12:09:51;;;;;;;1.08;0.43;;;;;;;;;;5005135;28;20030;-68
2021/08/05 12:12:18;;;;;;;0.47;0.30;;;;;;;;;;4990763;28;20490;-67
2021/08/05 12:14:59;;;;;;;0.93;0.40;;;;;;;;;;4990721;28;20038;-67
2021/08/05 12:17:33;;;;;;;1.27;0.38;;;;;;;;;;4985805;28;20019;-67
2021/08/05 12:20:01;;;;;;;0.70;0.40;;;;;;;;;;4988332;28;20041;-67
2021/08/05 12:22:36;;;;;;;3.22;0.80;;;;;;;;;;4987165;28;20037;-66
2021/08/05 12:25:08;;;;;;;2.08;0.57;;;;;;;;;;4989413;28;20039;-68
2021/08/05 12:27:35;;;;;;;1.52;0.50;;;;;;;;;;4982918;28;20022;-67
2021/08/05 12:30:09;;;;;;;1.80;0.65;;;;;;;;;;5005290;28;20121;-67
2021/08/05 12:32:56;;;;;;;2.40;0.52;;;;;;;;;;4990205;28;20019;-68
2021/08/05 12:35:23;;;;;;;1.98;0.63;;;;;;;;;;4990176;28;20109;-66
2021/08/05 12:38:04;;;;;;;1.75;0.60;;;;;;;;;;4988822;28;20494;-66
2021/08/05 12:40:32;;;;;;;0.65;0.40;;;;;;;;;;4988620;28;20031;-67
2021/08/05 12:43:02;;;;;;;0.85;0.57;;;;;;;;;;4992715;28;20026;-69
2021/08/05 12:45:32;;;;;;;2.53;0.77;;;;;;;;;;4992315;28;20026;-67
2021/08/05 12:47:59;;;;;;;1.42;0.60;;;;;;;;;;4991416;28;20023;-66
2021/08/05 12:50:26;;;;;;;3.67;0.50;;;;;;;;;;4992291;28;20019;-67
2021/08/05 12:52:53;;;;;;;3.20;1.00;;;;;;;;;;4990866;28;20042;-67
2021/08/05 12:55:20;;;;;;;2.00;1.00;;;;;;;;;;4990953;28;20034;-68
2021/08/05 12:57:52;;;;;;;3.15;0.60;;;;;;;;;;4989426;28;20099;-67
2021/08/05 13:00:31;;;;;;;1.02;0.70;;;;;;;;;;4990910;28;20042;-67
2021/08/05 13:03:00;;;;;;;2.50;0.60;;;;;;;;;;4985275;28;20021;-67
2021/08/05 13:05:27;;;;;;;0.90;0.50;;;;;;;;;;4989989;28;20027;-68
2021/08/05 13:07:54;;;;;;;1.02;0.50;;;;;;;;;;4990875;28;20061;-67
2021/08/05 13:10:42;;;;;;;1.83;0.88;;;;;;;;;;4990545;28;20479;-67
2021/08/05 13:13:09;;;;;;;5.93;3.58;;;;;;;;;;4989562;28;20022;-68
2021/08/05 13:15:37;;;;;;;2.40;1.15;;;;;;;;;;4989147;28;20014;-67
2021/08/05 13:18:05;;;;;;;2.20;0.73;;;;;;;;;;4990538;28;20026;-66
2021/08/05 13:20:33;;;;;;;1.20;0.45;;;;;;;;;;4989819;28;20022;-67
2021/08/05 13:23:00;;;;;;;2.78;0.90;;;;;;;;;;4987802;28;20432;-68
2021/08/05 13:25:44;;;;;;;2.35;1.13;;;;;;;;;;4991654;28;20030;-66
2021/08/05 13:28:16;;;;;;;2.33;1.27;;;;;;;;;;4990270;28;20468;-67
2021/08/05 13:30:48;;;;;;;2.67;1.05;;;;;;;;;;4991750;28;20131;-67
2021/08/05 13:33:29;;;;;;;1.42;0.70;;;;;;;;;;4990214;28;20511;-67
2021/08/05 13:35:58;;;;;;;1.15;0.52;;;;;;;;;;4989139;28;20034;-66
2021/08/05 13:38:26;;;;;;;2.55;1.05;;;;;;;;;;4990851;28;20023;-66
2021/08/05 13:40:59;;;;;;;1.58;0.60;;;;;;;;;;4988011;28;20113;-67
2021/08/05 13:43:26;;;;;;;1.63;0.80;;;;;;;;;;4988298;28;20041;-67
2021/08/05 13:45:53;;;;;;;1.67;0.70;;;;;;;;;;4990903;28;20026;-69
2021/08/05 13:48:21;;;;;;;2.45;0.90;;;;;;;;;;4990623;28;20109;-68
2021/08/05 13:50:50;;;;;;;1.00;0.60;;;;;;;;;;4991972;28;20023;-68
2021/08/05 13:53:18;;;;;;;3.55;0.82;;;;;;;;;;4990948;28;20073;-67
2021/08/05 13:55:45;;;;;;;2.28;1.10;;;;;;;;;;4991898;28;20030;-67
2021/08/05 13:58:12;;;;;;;3.50;1.25;;;;;;;;;;4979331;28;20027;-67
2021/08/05 14:00:39;;;;;;;2.67;0.90;;;;;;;;;;4990563;28;20022;-67
2021/08/05 14:03:07;;;;;;;2.30;0.82;;;;;;;;;;5001062;28;20042;-68
2021/08/05 14:05:34;;;;;;;1.50;0.57;;;;;;;;;;4992042;28;20022;-68
2021/08/05 14:08:01;;;;;;;7.53;1.10;;;;;;;;;;4989564;28;20043;-67
2021/08/05 14:10:28;;;;;;;1.60;0.40;;;;;;;;;;4987973;28;20023;-67
2021/08/05 14:12:55;;;;;;;1.75;0.57;;;;;;;;;;4986699;28;20105;-68
2021/08/05 14:15:22;;;;;;;1.83;0.60;;;;;;;;;;4992713;28;20033;-67
2021/08/05 14:17:50;;;;;;;1.77;0.43;;;;;;;;;;4991132;28;23198;-67
2021/08/05 14:20:17;;;;;;;0.88;0.30;;;;;;;;;;4995764;28;20058;-67
2021/08/05 14:22:45;;;;;;;0.82;0.40;;;;;;;;;;4995494;28;20060;-67
2021/08/05 14:25:13;;;;;;;1.85;0.47;;;;;;;;;;4994748;28;20618;-68
2021/08/05 14:27:40;;;;;;;0.88;0.50;;;;;;;;;;4993612;28;20033;-67
2021/08/05 14:30:09;;;;;;;1.55;0.47;;;;;;;;;;4995139;28;20026;-67
2021/08/05 14:32:36;;;;;;;2.60;0.40;;;;;;;;;;4994233;28;20442;-67
2021/08/05 14:35:03;;;;;;;3.70;0.50;;;;;;;;;;4992864;28;20038;-67
2021/08/05 14:37:30;;;;;;;2.58;0.38;;;;;;;;;;4993385;28;20034;-68
2021/08/05 14:39:57;;;;;;;1.08;0.30;;;;;;;;;;4995052;28;20080;-67
2021/08/05 14:42:24;;;;;;;0.70;0.35;;;;;;;;;;4987792;28;20084;-68
2021/08/05 14:44:52;;;;;;;1.40;0.45;;;;;;;;;;4993247;28;20034;-67
2021/08/05 14:47:19;;;;;;;2.38;0.57;;;;;;;;;;4992812;28;20026;-66
2021/08/05 14:49:46;;;;;;;1.15;0.50;;;;;;;;;;4994533;28;20022;-66
2021/08/05 14:52:13;;;;;;;1.20;0.43;;;;;;;;;;4993765;28;20184;-67
2021/08/05 14:54:40;;;;;;;1.33;0.43;;;;;;;;;;4994732;28;20038;-66